Big Bear Station Historical Data
Daily Summary for June 30, 2019 Units:  English    Metric   Both
Next Day »
Daily Weekly Monthly Yearly Custom
  High: Low: Average:
Temperature: 80.4 °F 53.2 °F 65.8 °F
Dew Point: 40.7 °F 15.4 °F 28.5 °F
Humidity: 43% 15% 25%
Wind Speed: 6.8mph 0mph 0.3mph
Wind Gust: -999mph - -
Wind- - WNW
Pressure: 23.64 in 23.57 in -
Precipitation: 0 in    
Historical Graphs
 
 
Tabular Data for June 30, 2019
Time Temperature Dew Point Pressure Wind Wind Speed Wind Gust Humidity Rainfall Rate (Hourly)
00:09 59.4 °F 27.9 °F 23.62 in Calm   -999 mph 30% 0.00 in
00:25 59.2 °F 28.6 °F 23.61 in Calm   -999 mph 31% 0.00 in
00:40 59.2 °F 28.6 °F 23.61 in Calm   -999 mph 31% 0.00 in
00:55 58.8 °F 25.7 °F 23.60 in Calm   -999 mph 28% 0.00 in
01:10 58.8 °F 24.9 °F 23.61 in Calm   -999 mph 27% 0.00 in
01:26 58.5 °F 25.5 °F 23.60 in Calm   -999 mph 28% 0.00 in
01:41 58.5 °F 25.5 °F 23.60 in Calm   -999 mph 28% 0.00 in
01:56 58.3 °F 23.5 °F 23.60 in Calm   -999 mph 26% 0.00 in
02:12 58.3 °F 24.4 °F 23.60 in Calm   -999 mph 27% 0.00 in
02:27 58.3 °F 22.6 °F 23.60 in Calm   -999 mph 25% 0.00 in
02:42 58.5 °F 20.8 °F 23.59 in Calm   -999 mph 23% 0.00 in
02:57 58.3 °F 19.6 °F 23.59 in Calm   -999 mph 22% 0.00 in
03:13 58.8 °F 22.1 °F 23.58 in Calm   -999 mph 24% 0.00 in
03:28 59 °F 17.9 °F 23.57 in Calm   -999 mph 20% 0.00 in
03:43 59.4 °F 20.5 °F 23.58 in Calm   -999 mph 22% 0.00 in
03:58 59.9 °F 18.7 °F 23.58 in Calm   -999 mph 20% 0.00 in
04:13 59.2 °F 24.3 °F 23.59 in Calm   -999 mph 26% 0.00 in
04:29 58.6 °F 25.6 °F 23.59 in Calm   -999 mph 28% 0.00 in
04:44 58.3 °F 25.3 °F 23.59 in NW 1.1 mph -999 mph 28% 0.00 in
04:59 58.1 °F 22.4 °F 23.59 in Calm   -999 mph 25% 0.00 in
05:14 58.3 °F 18.5 °F 23.59 in Calm   -999 mph 21% 0.00 in
05:29 58.1 °F 17.2 °F 23.59 in Calm   -999 mph 20% 0.00 in
05:45 57.4 °F 15.4 °F 23.59 in Calm   -999 mph 19% 0.00 in
06:00 57 °F 16.3 °F 23.60 in Calm   -999 mph 20% 0.00 in
06:15 56.5 °F 17 °F 23.60 in Calm   -999 mph 21% 0.00 in
06:30 55.8 °F 19.5 °F 23.61 in Calm   -999 mph 24% 0.00 in
06:46 55.2 °F 21.8 °F 23.61 in Calm   -999 mph 27% 0.00 in
07:01 55.4 °F 20.1 °F 23.60 in Calm   -999 mph 25% 0.00 in
07:16 56.8 °F 18.3 °F 23.61 in Calm   -999 mph 22% 0.00 in
07:31 56.8 °F 20.4 °F 23.61 in Calm   -999 mph 24% 0.00 in
07:46 59 °F 19.1 °F 23.61 in Calm   -999 mph 21% 0.00 in
08:02 59.7 °F 20.8 °F 23.62 in Calm   -999 mph 22% 0.00 in
08:17 61.2 °F 20.9 °F 23.62 in Calm   -999 mph 21% 0.00 in
08:32 62.1 °F 21.7 °F 23.62 in Calm   -999 mph 21% 0.00 in
08:47 63 °F 22.4 °F 23.62 in NW 1.1 mph -999 mph 21% 0.00 in
09:03 63.9 °F 20.8 °F 23.63 in SW 4.2 mph -999 mph 19% 0.00 in
09:18 64.6 °F 21.4 °F 23.63 in Calm   -999 mph 19% 0.00 in
09:33 65.3 °F 22 °F 23.63 in Calm   -999 mph 19% 0.00 in
09:49 66.2 °F 25.1 °F 23.63 in Calm   -999 mph 21% 0.00 in
10:04 67.1 °F 22.2 °F 23.64 in Calm   -999 mph 18% 0.00 in
10:19 68 °F 26.6 °F 23.64 in Calm   -999 mph 21% 0.00 in
10:34 68.4 °F 25.7 °F 23.63 in Calm   -999 mph 20% 0.00 in
10:49 68.9 °F 26.2 °F 23.63 in Calm   -999 mph 20% 0.00 in
11:05 70.2 °F 27.2 °F 23.63 in Calm   -999 mph 20% 0.00 in
11:20 71.2 °F 29.3 °F 23.64 in Calm   -999 mph 21% 0.00 in
11:35 72.3 °F 27.7 °F 23.64 in West 1.1 mph -999 mph 19% 0.00 in
11:50 74.1 °F 29.2 °F 23.64 in West 1.1 mph -999 mph 19% 0.00 in
12:06 75.7 °F 29.2 °F 23.63 in Calm   -999 mph 18% 0.00 in
12:21 76.5 °F 25.4 °F 23.63 in Calm   -999 mph 15% 0.00 in
12:36 78.1 °F 33.8 °F 23.63 in Calm   -999 mph 20% 0.00 in
12:51 77.5 °F 32 °F 23.63 in Calm   -999 mph 19% 0.00 in
13:06 77.7 °F 32.2 °F 23.63 in Calm   -999 mph 19% 0.00 in
13:22 77.5 °F 34.5 °F 23.63 in Calm   -999 mph 21% 0.00 in
13:37 77.2 °F 36.5 °F 23.63 in Calm   -999 mph 23% 0.00 in
13:52 78.3 °F 35.2 °F 23.63 in Calm   -999 mph 21% 0.00 in
14:07 77.2 °F 34.2 °F 23.62 in Calm   -999 mph 21% 0.00 in
14:22 78.3 °F 32.6 °F 23.62 in North 4.2 mph -999 mph 19% 0.00 in
14:38 77.5 °F 35.7 °F 23.62 in Calm   -999 mph 22% 0.00 in
14:53 78.8 °F 37.9 °F 23.62 in NW 6.8 mph -999 mph 23% 0.00 in
15:08 77.5 °F 35.7 °F 23.62 in Calm   -999 mph 22% 0.00 in
15:23 78.1 °F 36.2 °F 23.62 in Calm   -999 mph 22% 0.00 in
15:38 78.8 °F 34.3 °F 23.62 in NNW 2.2 mph -999 mph 20% 0.00 in
15:54 77.7 °F 35.8 °F 23.61 in WNW 2.7 mph -999 mph 22% 0.00 in
16:09 77 °F 34.1 °F 23.61 in Calm   -999 mph 21% 0.00 in
16:24 77 °F 35.2 °F 23.61 in Calm   -999 mph 22% 0.00 in
16:39 78.1 °F 39.4 °F 23.61 in Calm   -999 mph 25% 0.00 in
16:54 79.9 °F 36.5 °F 23.60 in Calm   -999 mph 21% 0.00 in
17:10 80.4 °F 35.7 °F 23.60 in West 2.7 mph -999 mph 20% 0.00 in
17:25 79.5 °F 34.9 °F 23.60 in Calm   -999 mph 20% 0.00 in
17:40 79 °F 34.5 °F 23.60 in Calm   -999 mph 20% 0.00 in
17:55 78.3 °F 36.3 °F 23.60 in Calm   -999 mph 22% 0.00 in
18:11 77 °F 35.2 °F 23.60 in Calm   -999 mph 22% 0.00 in
18:26 76.8 °F 37.3 °F 23.60 in Calm   -999 mph 24% 0.00 in
18:41 76.5 °F 38.1 °F 23.60 in Calm   -999 mph 25% 0.00 in
18:56 75.6 °F 39.3 °F 23.61 in Calm   -999 mph 27% 0.00 in
19:11 74.1 °F 40.7 °F 23.61 in Calm   -999 mph 30% 0.00 in
19:27 70 °F 39.6 °F 23.61 in Calm   -999 mph 33% 0.00 in
19:42 66.7 °F 39.6 °F 23.61 in Calm   -999 mph 37% 0.00 in
19:57 64.8 °F 39.9 °F 23.61 in Calm   -999 mph 40% 0.00 in
20:12 63.7 °F 40.2 °F 23.61 in Calm   -999 mph 42% 0.00 in
20:27 62.8 °F 38.7 °F 23.61 in Calm   -999 mph 41% 0.00 in
20:43 61.7 °F 35.2 °F 23.61 in Calm   -999 mph 37% 0.00 in
20:58 60.8 °F 34.4 °F 23.61 in Calm   -999 mph 37% 0.00 in
21:13 59.9 °F 30.7 °F 23.62 in Calm   -999 mph 33% 0.00 in
21:28 59 °F 27.6 °F 23.62 in Calm   -999 mph 30% 0.00 in
21:43 57.9 °F 30.4 °F 23.63 in Calm   -999 mph 35% 0.00 in
21:59 57 °F 28.2 °F 23.63 in Calm   -999 mph 33% 0.00 in
22:14 56.1 °F 29.5 °F 23.63 in Calm   -999 mph 36% 0.00 in
22:29 55.4 °F 30.8 °F 23.63 in Calm   -999 mph 39% 0.00 in
22:44 55.2 °F 30 °F 23.63 in Calm   -999 mph 38% 0.00 in
22:59 54.3 °F 30.5 °F 23.62 in Calm   -999 mph 40% 0.00 in
23:15 53.8 °F 31.8 °F 23.62 in Calm   -999 mph 43% 0.00 in
23:30 53.8 °F 30.6 °F 23.62 in Calm   -999 mph 41% 0.00 in
23:45 53.2 °F 26.9 °F 23.62 in Calm   -999 mph 36% 0.00 in
Big Bear CA Weather